PWSweather.com
Personal Weather Stations
Station Observations
79674
AfterstegDE 79674

AfterstegDE 79674

Lat: 47.84344, Lon: 7.92844

Elevation: 809

Station Type: Davis Vantage 2 Aktive

Latest ConditionsUpdated 7:22:08 AM GMT+01:01 Saturday, Aug 27, 2016
Currently Today's Max Today's Min Today's Average
Temperature 68.2°F20.1°C 68.5°F20.3°C 65.7°F18.7°C 66.5°F19.2°C
Dew Point 62.1°F16.7°C 62.1°F16.7°C 57.6°F14.2°C 59.9°F15.5°C
Winds Calm Calm Calm NWCalm NW - Calm Calm
Wind Gusts -- 2.0 mph3.2 kmh - -
Humidity 81% 83% 68% 79%
Pressure 30.03 in1016.9 mb 30.04 in1017.3 mb 30.02 in1016.6 mb -
Hour Temp Dew Point Humidity Winds Wind Gusts Pressure Precip Precip Rate Daily Precip Total
07:22 AM 68.2°F20.1°C 62.1°F16.7°C 81% Calm Calm -- 30.03 in1016.9 mb - 0.00 in0.0 mm 0.00 in0.0 mm
07:17 AM 67.3°F19.6°C 61.5°F16.4°C 82% Calm Calm -- 30.03 in1016.9 mb - 0.00 in0.0 mm 0.00 in0.0 mm
07:12 AM 66.7°F19.3°C 61.3°F16.3°C 83% Calm Calm -- 30.03 in1016.9 mb - 0.00 in0.0 mm 0.00 in0.0 mm
07:07 AM 66.7°F19.3°C 61.0°F16.1°C 82% Calm Calm -- 30.03 in1016.9 mb - 0.00 in0.0 mm 0.00 in0.0 mm
07:02 AM 66.6°F19.2°C 61.0°F16.1°C 82% Calm Calm -- 30.03 in1016.9 mb - 0.00 in0.0 mm 0.00 in0.0 mm
06:57 AM 66.6°F19.2°C 61.0°F16.1°C 82% Calm Calm -- 30.03 in1016.9 mb - 0.00 in0.0 mm 0.00 in0.0 mm
06:52 AM 66.9°F19.4°C 61.0°F16.1°C 81% Calm Calm -- 30.03 in1016.9 mb - 0.00 in0.0 mm 0.00 in0.0 mm
06:47 AM 66.7°F19.3°C 60.8°F16.0°C 81% Calm Calm -- 30.03 in1016.9 mb - 0.00 in0.0 mm 0.00 in0.0 mm
06:42 AM 66.4°F19.1°C 60.8°F16.0°C 82% Calm Calm 2.0 mph3.2 kmh 30.03 in1016.9 mb - 0.00 in0.0 mm 0.00 in0.0 mm
06:37 AM 66.4°F19.1°C 60.8°F16.0°C 82% Calm Calm -- 30.03 in1016.9 mb - 0.00 in0.0 mm 0.00 in0.0 mm
06:32 AM 66.6°F19.2°C 61.0°F16.1°C 82% Calm Calm -- 30.03 in1016.9 mb - 0.00 in0.0 mm 0.00 in0.0 mm
06:27 AM 66.4°F19.1°C 60.8°F16.0°C 82% Calm Calm -- 30.03 in1016.9 mb - 0.00 in0.0 mm 0.00 in0.0 mm
06:22 AM 66.4°F19.1°C 60.8°F16.0°C 82% Calm Calm -- 30.03 in1016.9 mb - 0.00 in0.0 mm 0.00 in0.0 mm
06:17 AM 66.4°F19.1°C 60.4°F15.8°C 81% Calm Calm -- 30.03 in1016.9 mb - 0.00 in0.0 mm 0.00 in0.0 mm
06:12 AM 66.2°F19.0°C 60.6°F15.9°C 82% Calm Calm -- 30.03 in1016.9 mb - 0.00 in0.0 mm 0.00 in0.0 mm
06:07 AM 66.0°F18.9°C 60.4°F15.8°C 82% Calm Calm -- 30.03 in1016.9 mb - 0.00 in0.0 mm 0.00 in0.0 mm
05:57 AM 66.0°F18.9°C 60.4°F15.8°C 82% Calm Calm -- 30.02 in1016.6 mb - 0.00 in0.0 mm 0.00 in0.0 mm
05:52 AM 65.8°F18.8°C 60.3°F15.7°C 82% Calm Calm -- 30.02 in1016.6 mb - 0.00 in0.0 mm 0.00 in0.0 mm
05:47 AM 65.8°F18.8°C 60.3°F15.7°C 82% Calm Calm -- 30.02 in1016.6 mb - 0.00 in0.0 mm 0.00 in0.0 mm
05:42 AM 65.8°F18.8°C 60.6°F15.9°C 83% Calm Calm -- 30.02 in1016.6 mb - 0.00 in0.0 mm 0.00 in0.0 mm
05:37 AM 65.8°F18.8°C 60.3°F15.7°C 82% Calm Calm -- 30.02 in1016.6 mb - 0.00 in0.0 mm 0.00 in0.0 mm
05:32 AM 65.8°F18.8°C 60.3°F15.7°C 82% Calm Calm -- 30.02 in1016.6 mb - 0.00 in0.0 mm 0.00 in0.0 mm
05:27 AM 65.8°F18.8°C 60.3°F15.7°C 82% Calm Calm -- 30.02 in1016.6 mb - 0.00 in0.0 mm 0.00 in0.0 mm
05:22 AM 65.8°F18.8°C 60.3°F15.7°C 82% Calm Calm -- 30.02 in1016.6 mb - 0.00 in0.0 mm 0.00 in0.0 mm
05:17 AM 65.8°F18.8°C 60.3°F15.7°C 82% Calm Calm -- 30.02 in1016.6 mb - 0.00 in0.0 mm 0.00 in0.0 mm
05:12 AM 65.7°F18.7°C 60.1°F15.6°C 82% Calm Calm -- 30.02 in1016.6 mb - 0.00 in0.0 mm 0.00 in0.0 mm
05:02 AM 65.8°F18.8°C 60.3°F15.7°C 82% Calm Calm -- 30.02 in1016.6 mb - 0.00 in0.0 mm 0.00 in0.0 mm
04:57 AM 65.8°F18.8°C 60.3°F15.7°C 82% Calm Calm -- 30.02 in1016.6 mb - 0.00 in0.0 mm 0.00 in0.0 mm
04:52 AM 65.7°F18.7°C 60.1°F15.6°C 82% Calm Calm -- 30.02 in1016.6 mb - 0.00 in0.0 mm 0.00 in0.0 mm
04:47 AM 65.7°F18.7°C 60.1°F15.6°C 82% Calm Calm -- 30.02 in1016.6 mb - 0.00 in0.0 mm 0.00 in0.0 mm
04:42 AM 65.8°F18.8°C 60.3°F15.7°C 82% Calm Calm -- 30.02 in1016.6 mb - 0.00 in0.0 mm 0.00 in0.0 mm
04:32 AM 65.8°F18.8°C 60.3°F15.7°C 82% Calm Calm -- 30.02 in1016.6 mb - 0.00 in0.0 mm 0.00 in0.0 mm
04:27 AM 65.7°F18.7°C 60.1°F15.6°C 82% Calm Calm -- 30.02 in1016.6 mb - 0.00 in0.0 mm 0.00 in0.0 mm
04:22 AM 65.8°F18.8°C 60.3°F15.7°C 82% Calm Calm -- 30.02 in1016.6 mb - 0.00 in0.0 mm 0.00 in0.0 mm
04:17 AM 65.8°F18.8°C 60.3°F15.7°C 82% Calm Calm -- 30.02 in1016.6 mb - 0.00 in0.0 mm 0.00 in0.0 mm
04:12 AM 65.8°F18.8°C 60.3°F15.7°C 82% Calm Calm -- 30.03 in1016.9 mb - 0.00 in0.0 mm 0.00 in0.0 mm
04:07 AM 65.8°F18.8°C 60.3°F15.7°C 82% Calm Calm -- 30.03 in1016.9 mb - 0.00 in0.0 mm 0.00 in0.0 mm
04:02 AM 65.7°F18.7°C 60.1°F15.6°C 82% Calm Calm -- 30.03 in1016.9 mb - 0.00 in0.0 mm 0.00 in0.0 mm
03:57 AM 65.8°F18.8°C 60.3°F15.7°C 82% Calm Calm -- 30.03 in1016.9 mb - 0.00 in0.0 mm 0.00 in0.0 mm
03:52 AM 66.0°F18.9°C 60.4°F15.8°C 82% Calm Calm -- 30.03 in1016.9 mb - 0.00 in0.0 mm 0.00 in0.0 mm
03:47 AM 65.8°F18.8°C 60.3°F15.7°C 82% Calm Calm -- 30.03 in1016.9 mb - 0.00 in0.0 mm 0.00 in0.0 mm
03:42 AM 65.8°F18.8°C 59.9°F15.5°C 81% Calm Calm -- 30.03 in1016.9 mb - 0.00 in0.0 mm 0.00 in0.0 mm
03:37 AM 65.8°F18.8°C 59.9°F15.5°C 81% Calm Calm -- 30.03 in1016.9 mb - 0.00 in0.0 mm 0.00 in0.0 mm
03:32 AM 66.0°F18.9°C 60.1°F15.6°C 81% Calm Calm -- 30.03 in1016.9 mb - 0.00 in0.0 mm 0.00 in0.0 mm
03:27 AM 66.0°F18.9°C 60.1°F15.6°C 81% Calm Calm -- 30.03 in1016.9 mb - 0.00 in0.0 mm 0.00 in0.0 mm
03:22 AM 66.0°F18.9°C 59.7°F15.4°C 80% Calm Calm -- 30.03 in1016.9 mb - 0.00 in0.0 mm 0.00 in0.0 mm
03:17 AM 66.4°F19.1°C 60.1°F15.6°C 80% Calm Calm -- 30.04 in1017.3 mb - 0.00 in0.0 mm 0.00 in0.0 mm
03:12 AM 66.6°F19.2°C 59.9°F15.5°C 79% Calm Calm -- 30.03 in1016.9 mb - 0.00 in0.0 mm 0.00 in0.0 mm
03:07 AM 66.6°F19.2°C 59.9°F15.5°C 79% Calm Calm -- 30.03 in1016.9 mb - 0.00 in0.0 mm 0.00 in0.0 mm
03:02 AM 66.7°F19.3°C 60.1°F15.6°C 79% Calm Calm -- 30.04 in1017.3 mb - 0.00 in0.0 mm 0.00 in0.0 mm
02:57 AM 66.7°F19.3°C 60.1°F15.6°C 79% Calm Calm -- 30.04 in1017.3 mb - 0.00 in0.0 mm 0.00 in0.0 mm
02:52 AM 66.9°F19.4°C 59.9°F15.5°C 78% Calm Calm -- 30.03 in1016.9 mb - 0.00 in0.0 mm 0.00 in0.0 mm
02:47 AM 67.3°F19.6°C 59.9°F15.5°C 77% Calm Calm -- 30.03 in1016.9 mb - 0.00 in0.0 mm 0.00 in0.0 mm
02:42 AM 66.9°F19.4°C 60.3°F15.7°C 79% Calm Calm -- 30.04 in1017.3 mb - 0.00 in0.0 mm 0.00 in0.0 mm
02:37 AM 66.9°F19.4°C 59.9°F15.5°C 78% Calm Calm -- 30.04 in1017.3 mb - 0.00 in0.0 mm 0.00 in0.0 mm
02:32 AM 66.9°F19.4°C 59.9°F15.5°C 78% Calm Calm -- 30.04 in1017.3 mb - 0.00 in0.0 mm 0.00 in0.0 mm
02:27 AM 66.7°F19.3°C 59.7°F15.4°C 78% Calm Calm -- 30.04 in1017.3 mb - 0.00 in0.0 mm 0.00 in0.0 mm
02:22 AM 66.7°F19.3°C 59.7°F15.4°C 78% Calm Calm -- 30.04 in1017.3 mb - 0.00 in0.0 mm 0.00 in0.0 mm
02:17 AM 66.9°F19.4°C 59.9°F15.5°C 78% Calm Calm -- 30.04 in1017.3 mb - 0.00 in0.0 mm 0.00 in0.0 mm
02:12 AM 66.9°F19.4°C 59.9°F15.5°C 78% Calm Calm -- 30.04 in1017.3 mb - 0.00 in0.0 mm 0.00 in0.0 mm
02:07 AM 66.7°F19.3°C 59.7°F15.4°C 78% Calm Calm -- 30.04 in1017.3 mb - 0.00 in0.0 mm 0.00 in0.0 mm
02:02 AM 66.7°F19.3°C 59.7°F15.4°C 78% Calm Calm -- 30.04 in1017.3 mb - 0.00 in0.0 mm 0.00 in0.0 mm
01:57 AM 66.9°F19.4°C 59.9°F15.5°C 78% Calm Calm -- 30.04 in1017.3 mb - 0.00 in0.0 mm 0.00 in0.0 mm
01:52 AM 66.9°F19.4°C 59.5°F15.3°C 77% Calm Calm -- 30.04 in1017.3 mb - 0.00 in0.0 mm 0.00 in0.0 mm
01:47 AM 66.9°F19.4°C 59.5°F15.3°C 77% Calm Calm -- 30.04 in1017.3 mb - 0.00 in0.0 mm 0.00 in0.0 mm
01:42 AM 67.1°F19.5°C 59.4°F15.2°C 76% Calm Calm -- 30.04 in1017.3 mb - 0.00 in0.0 mm 0.00 in0.0 mm
01:37 AM 67.1°F19.5°C 59.4°F15.2°C 76% Calm Calm -- 30.04 in1017.3 mb - 0.00 in0.0 mm 0.00 in0.0 mm
01:32 AM 67.3°F19.6°C 59.5°F15.3°C 76% Calm Calm -- 30.04 in1017.3 mb - 0.00 in0.0 mm 0.00 in0.0 mm
01:27 AM 67.3°F19.6°C 59.5°F15.3°C 76% Calm Calm -- 30.04 in1017.3 mb - 0.00 in0.0 mm 0.00 in0.0 mm
01:22 AM 67.3°F19.6°C 59.5°F15.3°C 76% Calm Calm -- 30.04 in1017.3 mb - 0.00 in0.0 mm 0.00 in0.0 mm
01:17 AM 66.9°F19.4°C 59.2°F15.1°C 76% Calm Calm -- 30.04 in1017.3 mb - 0.00 in0.0 mm 0.00 in0.0 mm
01:12 AM 66.9°F19.4°C 58.8°F14.9°C 75% Calm Calm -- 30.04 in1017.3 mb - 0.00 in0.0 mm 0.00 in0.0 mm
01:07 AM 67.1°F19.5°C 58.8°F14.9°C 75% Calm Calm -- 30.04 in1017.3 mb - 0.00 in0.0 mm 0.00 in0.0 mm
01:02 AM 66.9°F19.4°C 58.8°F14.9°C 75% Calm Calm -- 30.04 in1017.3 mb - 0.00 in0.0 mm 0.00 in0.0 mm
12:57 AM 66.9°F19.4°C 58.8°F14.9°C 75% Calm Calm -- 30.04 in1017.3 mb - 0.00 in0.0 mm 0.00 in0.0 mm
12:52 AM 67.3°F19.6°C 58.6°F14.8°C 74% Calm Calm -- 30.04 in1017.3 mb - 0.00 in0.0 mm 0.00 in0.0 mm
12:47 AM 67.3°F19.6°C 58.6°F14.8°C 74% Calm Calm -- 30.04 in1017.3 mb - 0.00 in0.0 mm 0.00 in0.0 mm
12:42 AM 67.1°F19.5°C 58.5°F14.7°C 74% Calm Calm -- 30.04 in1017.3 mb - 0.00 in0.0 mm 0.00 in0.0 mm
12:37 AM 66.9°F19.4°C 58.3°F14.6°C 74% Calm Calm -- 30.04 in1017.3 mb - 0.00 in0.0 mm 0.00 in0.0 mm
12:32 AM 66.7°F19.3°C 58.1°F14.5°C 74% Calm Calm -- 30.04 in1017.3 mb - 0.00 in0.0 mm 0.00 in0.0 mm
12:27 AM 67.1°F19.5°C 58.1°F14.5°C 73% Calm Calm -- 30.04 in1017.3 mb - 0.00 in0.0 mm 0.00 in0.0 mm
12:22 AM 67.5°F19.7°C 58.1°F14.5°C 72% Calm Calm -- 30.04 in1017.3 mb - 0.00 in0.0 mm 0.00 in0.0 mm
12:17 AM 67.5°F19.7°C 58.1°F14.5°C 72% Calm Calm -- 30.04 in1017.3 mb - 0.00 in0.0 mm 0.00 in0.0 mm
12:12 AM 67.5°F19.7°C 57.7°F14.3°C 71% Calm Calm -- 30.04 in1017.3 mb - 0.00 in0.0 mm 0.00 in0.0 mm
12:07 AM 67.8°F19.9°C 57.7°F14.3°C 70% Calm Calm -- 30.04 in1017.3 mb - 0.00 in0.0 mm 0.00 in0.0 mm
12:02 AM 68.5°F20.3°C 57.6°F14.2°C 68% Calm Calm -- 30.04 in1017.3 mb - 0.00 in0.0 mm 0.00 in0.0 mm